KOW860 KORL-KOPF
Flight info
| Callsign | KOW860 |
|---|---|
| Flight time | N/A |
| Altitude | 33000 |
| Route | NYTES2 NYTES DDANY JIPOD CUUDA3 |
| Aircraft | C750/M-SBDE3FGHRWXY/S |
Departure
| Time | 2026-05-05 00:30 |
|---|---|
| Airport | Orlando Executive Airport (KORL) |
Arrival
| Time | N/A |
|---|---|
| Airport | Miami-Opa Locka Executive Airport (KOPF) |
| Time | Latitude | Longitude | Altitude | Speed | Heading |
|---|---|---|---|---|---|
| 2026-05-05 00:08 | 28.54804 | -81.33831 | 118 ft | 0 kts | 36° |
| 2026-05-05 00:23 | 28.54805 | -81.33820 | 118 ft | 4 kts | 103° |
| 2026-05-05 00:24 | 28.54779 | -81.33819 | 115 ft | 5 kts | 198° |
| 2026-05-05 00:24 | 28.54739 | -81.33800 | 115 ft | 10 kts | 132° |
| 2026-05-05 00:24 | 28.54695 | -81.33742 | 113 ft | 9 kts | 133° |
| 2026-05-05 00:24 | 28.54657 | -81.33693 | 114 ft | 8 kts | 129° |
| 2026-05-05 00:25 | 28.54623 | -81.33650 | 114 ft | 7 kts | 132° |
| 2026-05-05 00:25 | 28.54589 | -81.33607 | 113 ft | 8 kts | 131° |
| 2026-05-05 00:25 | 28.54557 | -81.33608 | 113 ft | 7 kts | 237° |
| 2026-05-05 00:25 | 28.54527 | -81.33682 | 111 ft | 12 kts | 246° |
| 2026-05-05 00:26 | 28.54493 | -81.33767 | 110 ft | 11 kts | 248° |
| 2026-05-05 00:26 | 28.54459 | -81.33835 | 110 ft | 9 kts | 231° |
| 2026-05-05 00:26 | 28.54428 | -81.33879 | 110 ft | 5 kts | 258° |
| 2026-05-05 00:26 | 28.54414 | -81.33913 | 109 ft | 5 kts | 222° |
| 2026-05-05 00:27 | 28.54387 | -81.33941 | 109 ft | 6 kts | 223° |
| 2026-05-05 00:27 | 28.54362 | -81.33955 | 109 ft | 3 kts | 183° |
| 2026-05-05 00:27 | 28.54361 | -81.33955 | 109 ft | 0 kts | 180° |
| 2026-05-05 00:29 | 28.54333 | -81.33944 | 106 ft | 12 kts | 150° |
| 2026-05-05 00:29 | 28.54297 | -81.33871 | 107 ft | 15 kts | 60° |
| 2026-05-05 00:29 | 28.54495 | -81.33368 | 116 ft | 124 kts | 67° |
| 2026-05-05 00:29 | 28.54886 | -81.32322 | 415 ft | 158 kts | 67° |
| 2026-05-05 00:30 | 28.55437 | -81.31149 | 1056 ft | 177 kts | 55° |
| 2026-05-05 00:30 | 28.56185 | -81.30115 | 1436 ft | 164 kts | 51° |
| 2026-05-05 00:30 | 28.56911 | -81.29138 | 1616 ft | 159 kts | 52° |
| 2026-05-05 00:30 | 28.57640 | -81.28151 | 1581 ft | 169 kts | 52° |
| 2026-05-05 00:31 | 28.58443 | -81.27005 | 1524 ft | 208 kts | 53° |
| 2026-05-05 00:31 | 28.59373 | -81.25674 | 1753 ft | 222 kts | 52° |
| 2026-05-05 00:31 | 28.60373 | -81.24225 | 1687 ft | 244 kts | 54° |
| 2026-05-05 00:31 | 28.61440 | -81.22660 | 1782 ft | 255 kts | 53° |
| 2026-05-05 00:32 | 28.62499 | -81.21090 | 1708 ft | 243 kts | 55° |
| 2026-05-05 00:32 | 28.63495 | -81.19611 | 1720 ft | 230 kts | 53° |
| 2026-05-05 00:32 | 28.64441 | -81.18186 | 1715 ft | 221 kts | 55° |
| 2026-05-05 00:32 | 28.65417 | -81.16844 | 1603 ft | 219 kts | 49° |
| 2026-05-05 00:33 | 28.66345 | -81.15494 | 1583 ft | 213 kts | 57° |
| 2026-05-05 00:33 | 28.67147 | -81.14117 | 1686 ft | 202 kts | 55° |
| 2026-05-05 00:33 | 28.67944 | -81.12867 | 1865 ft | 187 kts | 55° |
| 2026-05-05 00:33 | 28.68682 | -81.11675 | 1622 ft | 194 kts | 55° |